sensor_id;sensor_type;location;lat;lon;timestamp;pressure;altitude;pressure_sealevel;temperature;humidity
20696;BME280;10507;52.754;13.040;2023-01-25T00:01:08;102621.50;;;0.98;100.00
20696;BME280;10507;52.754;13.040;2023-01-25T00:03:36;102627.78;;;1.03;100.00
20696;BME280;10507;52.754;13.040;2023-01-25T00:06:05;102636.63;;;1.09;100.00
20696;BME280;10507;52.754;13.040;2023-01-25T00:08:32;102557.59;;;1.01;99.41
20696;BME280;10507;52.754;13.040;2023-01-25T00:11:00;102564.66;;;1.03;100.00
20696;BME280;10507;52.754;13.040;2023-01-25T00:13:28;102576.97;;;1.08;99.95
20696;BME280;10507;52.754;13.040;2023-01-25T00:16:01;102622.72;;;1.14;100.00
20696;BME280;10507;52.754;13.040;2023-01-25T00:18:30;102577.91;;;1.10;100.00
20696;BME280;10507;52.754;13.040;2023-01-25T00:20:58;102589.34;;;1.12;100.00
20696;BME280;10507;52.754;13.040;2023-01-25T00:23:33;102606.97;;;1.16;100.00
20696;BME280;10507;52.754;13.040;2023-01-25T00:26:01;102652.66;;;1.21;100.00
20696;BME280;10507;52.754;13.040;2023-01-25T00:28:29;102649.16;;;1.20;100.00
20696;BME280;10507;52.754;13.040;2023-01-25T00:30:58;102628.84;;;1.13;100.00
20696;BME280;10507;52.754;13.040;2023-01-25T00:33:49;102670.16;;;1.17;100.00
20696;BME280;10507;52.754;13.040;2023-01-25T00:36:27;102639.38;;;1.13;100.00
20696;BME280;10507;52.754;13.040;2023-01-25T00:38:59;102588.28;;;1.02;100.00
20696;BME280;10507;52.754;13.040;2023-01-25T00:41:27;102608.53;;;1.06;100.00
20696;BME280;10507;52.754;13.040;2023-01-25T00:43:55;102583.19;;;1.11;100.00
20696;BME280;10507;52.754;13.040;2023-01-25T00:46:23;102550.59;;;1.03;100.00
20696;BME280;10507;52.754;13.040;2023-01-25T00:48:53;102530.41;;;1.02;100.00
20696;BME280;10507;52.754;13.040;2023-01-25T00:51:21;102607.84;;;1.16;100.00
20696;BME280;10507;52.754;13.040;2023-01-25T00:53:51;102527.88;;;1.07;100.00
20696;BME280;10507;52.754;13.040;2023-01-25T00:56:19;102555.13;;;1.10;100.00
20696;BME280;10507;52.754;13.040;2023-01-25T00:58:47;102554.34;;;1.16;100.00
20696;BME280;10507;52.754;13.040;2023-01-25T01:01:15;102509.47;;;1.07;100.00
20696;BME280;10507;52.754;13.040;2023-01-25T01:03:43;102448.81;;;0.97;99.73
20696;BME280;10507;52.754;13.040;2023-01-25T01:08:59;102483.88;;;0.98;99.97
20696;BME280;10507;52.754;13.040;2023-01-25T01:11:27;102472.50;;;0.99;99.62
20696;BME280;10507;52.754;13.040;2023-01-25T01:20:47;102421.50;;;0.91;99.08
20696;BME280;10507;52.754;13.040;2023-01-25T01:23:17;102433.78;;;0.92;99.01
20696;BME280;10507;52.754;13.040;2023-01-25T01:25:47;102430.34;;;0.96;99.15
20696;BME280;10507;52.754;13.040;2023-01-25T01:28:15;102388.94;;;0.84;99.44
20696;BME280;10507;52.754;13.040;2023-01-25T01:30:43;102418.78;;;0.86;98.94
20696;BME280;10507;52.754;13.040;2023-01-25T01:33:11;102405.56;;;0.81;99.28
20696;BME280;10507;52.754;13.040;2023-01-25T01:35:39;102412.53;;;0.79;99.50
20696;BME280;10507;52.754;13.040;2023-01-25T01:38:07;102408.94;;;0.74;99.57
20696;BME280;10507;52.754;13.040;2023-01-25T01:40:36;102423.84;;;0.75;99.85
20696;BME280;10507;52.754;13.040;2023-01-25T01:43:12;102477.38;;;0.79;100.00
20696;BME280;10507;52.754;13.040;2023-01-25T01:45:52;102510.78;;;0.83;100.00
20696;BME280;10507;52.754;13.040;2023-01-25T01:48:33;102526.63;;;0.88;100.00
20696;BME280;10507;52.754;13.040;2023-01-25T01:51:04;102458.06;;;0.77;100.00
20696;BME280;10507;52.754;13.040;2023-01-25T01:53:40;102449.28;;;0.76;99.91
20696;BME280;10507;52.754;13.040;2023-01-25T01:56:16;102423.75;;;0.71;99.93
20696;BME280;10507;52.754;13.040;2023-01-25T01:58:49;102450.00;;;0.68;100.00
20696;BME280;10507;52.754;13.040;2023-01-25T02:01:18;102454.38;;;0.69;100.00
20696;BME280;10507;52.754;13.040;2023-01-25T02:03:47;102449.91;;;0.65;100.00
20696;BME280;10507;52.754;13.040;2023-01-25T02:06:24;102520.19;;;0.73;100.00
20696;BME280;10507;52.754;13.040;2023-01-25T02:08:56;102583.53;;;0.84;100.00
20696;BME280;10507;52.754;13.040;2023-01-25T02:11:32;102567.84;;;0.89;100.00
20696;BME280;10507;52.754;13.040;2023-01-25T02:14:05;102581.97;;;0.94;100.00
20696;BME280;10507;52.754;13.040;2023-01-25T02:16:34;102545.09;;;0.91;100.00
20696;BME280;10507;52.754;13.040;2023-01-25T02:19:02;102553.13;;;0.97;100.00
20696;BME280;10507;52.754;13.040;2023-01-25T02:21:38;102533.00;;;0.99;100.00
20696;BME280;10507;52.754;13.040;2023-01-25T02:24:11;102455.72;;;0.92;100.00
20696;BME280;10507;52.754;13.040;2023-01-25T02:26:47;102441.56;;;0.86;100.00
20696;BME280;10507;52.754;13.040;2023-01-25T02:29:16;102465.28;;;0.89;100.00
20696;BME280;10507;52.754;13.040;2023-01-25T02:31:46;102446.78;;;0.84;100.00
20696;BME280;10507;52.754;13.040;2023-01-25T02:34:15;102455.56;;;0.83;100.00
20696;BME280;10507;52.754;13.040;2023-01-25T02:36:43;102506.47;;;0.88;100.00
20696;BME280;10507;52.754;13.040;2023-01-25T02:39:12;102545.19;;;0.95;100.00
20696;BME280;10507;52.754;13.040;2023-01-25T02:41:47;102550.41;;;0.94;100.00
20696;BME280;10507;52.754;13.040;2023-01-25T02:44:17;102540.72;;;0.91;100.00
20696;BME280;10507;52.754;13.040;2023-01-25T02:46:46;102567.09;;;0.96;100.00
20696;BME280;10507;52.754;13.040;2023-01-25T02:49:16;102541.59;;;0.92;100.00
20696;BME280;10507;52.754;13.040;2023-01-25T02:51:46;102488.91;;;0.86;100.00
20696;BME280;10507;52.754;13.040;2023-01-25T02:54:16;102487.84;;;0.77;100.00
20696;BME280;10507;52.754;13.040;2023-01-25T02:56:44;102500.84;;;0.70;100.00
20696;BME280;10507;52.754;13.040;2023-01-25T02:59:14;102553.63;;;0.79;100.00
20696;BME280;10507;52.754;13.040;2023-01-25T03:01:44;102544.69;;;0.71;100.00
20696;BME280;10507;52.754;13.040;2023-01-25T03:04:13;102569.22;;;0.71;100.00
20696;BME280;10507;52.754;13.040;2023-01-25T03:06:41;102575.25;;;0.67;100.00
20696;BME280;10507;52.754;13.040;2023-01-25T03:09:10;102586.69;;;0.68;100.00
20696;BME280;10507;52.754;13.040;2023-01-25T03:11:38;102564.75;;;0.67;100.00
20696;BME280;10507;52.754;13.040;2023-01-25T03:14:07;102585.91;;;0.73;100.00
20696;BME280;10507;52.754;13.040;2023-01-25T03:16:37;102637.06;;;0.88;100.00
20696;BME280;10507;52.754;13.040;2023-01-25T03:19:08;102653.84;;;0.93;100.00
20696;BME280;10507;52.754;13.040;2023-01-25T03:21:36;102655.78;;;1.03;100.00
20696;BME280;10507;52.754;13.040;2023-01-25T03:24:09;102604.88;;;0.99;100.00
20696;BME280;10507;52.754;13.040;2023-01-25T03:26:37;102616.28;;;1.00;100.00
20696;BME280;10507;52.754;13.040;2023-01-25T03:29:19;102599.63;;;0.99;100.00
20696;BME280;10507;52.754;13.040;2023-01-25T03:31:48;102624.19;;;1.00;100.00
20696;BME280;10507;52.754;13.040;2023-01-25T03:34:17;102635.66;;;1.05;100.00
20696;BME280;10507;52.754;13.040;2023-01-25T03:36:45;102583.81;;;0.98;100.00
20696;BME280;10507;52.754;13.040;2023-01-25T03:39:13;102559.13;;;0.91;100.00
20696;BME280;10507;52.754;13.040;2023-01-25T03:41:41;102581.03;;;0.92;100.00
20696;BME280;10507;52.754;13.040;2023-01-25T03:44:09;102595.09;;;0.94;100.00
20696;BME280;10507;52.754;13.040;2023-01-25T03:46:38;102588.13;;;0.94;100.00
20696;BME280;10507;52.754;13.040;2023-01-25T03:49:08;102607.56;;;1.01;100.00
20696;BME280;10507;52.754;13.040;2023-01-25T03:51:37;102612.81;;;1.01;100.00
20696;BME280;10507;52.754;13.040;2023-01-25T03:54:05;102616.34;;;1.03;100.00
20696;BME280;10507;52.754;13.040;2023-01-25T03:56:34;102590.13;;;1.06;100.00
20696;BME280;10507;52.754;13.040;2023-01-25T03:59:03;102568.94;;;1.00;100.00
20696;BME280;10507;52.754;13.040;2023-01-25T04:01:31;102603.28;;;1.08;100.00
20696;BME280;10507;52.754;13.040;2023-01-25T04:03:59;102561.09;;;1.01;100.00
20696;BME280;10507;52.754;13.040;2023-01-25T04:06:29;102552.19;;;0.96;100.00
20696;BME280;10507;52.754;13.040;2023-01-25T04:08:57;102572.44;;;0.99;100.00
20696;BME280;10507;52.754;13.040;2023-01-25T04:11:25;102614.72;;;1.08;100.00
20696;BME280;10507;52.754;13.040;2023-01-25T04:13:54;102587.44;;;1.04;100.00
20696;BME280;10507;52.754;13.040;2023-01-25T04:16:22;102591.91;;;1.09;100.00
20696;BME280;10507;52.754;13.040;2023-01-25T04:18:50;102577.91;;;1.08;100.00
20696;BME280;10507;52.754;13.040;2023-01-25T04:21:18;102584.03;;;1.09;100.00
20696;BME280;10507;52.754;13.040;2023-01-25T04:23:47;102577.06;;;1.11;100.00
20696;BME280;10507;52.754;13.040;2023-01-25T04:26:16;102584.22;;;1.18;100.00
20696;BME280;10507;52.754;13.040;2023-01-25T04:28:44;102547.34;;;1.15;100.00
20696;BME280;10507;52.754;13.040;2023-01-25T04:31:12;102454.09;;;1.00;100.00
20696;BME280;10507;52.754;13.040;2023-01-25T04:33:40;102426.81;;;0.94;100.00
20696;BME280;10507;52.754;13.040;2023-01-25T04:36:09;102440.00;;;0.95;100.00
20696;BME280;10507;52.754;13.040;2023-01-25T04:38:37;102469.19;;;1.09;100.00
20696;BME280;10507;52.754;13.040;2023-01-25T04:41:06;102473.59;;;1.12;100.00
20696;BME280;10507;52.754;13.040;2023-01-25T04:43:35;102427.97;;;1.08;100.00
20696;BME280;10507;52.754;13.040;2023-01-25T04:46:06;102396.28;;;1.02;100.00
20696;BME280;10507;52.754;13.040;2023-01-25T04:48:34;102457.78;;;1.09;100.00
20696;BME280;10507;52.754;13.040;2023-01-25T04:51:02;102504.44;;;1.19;100.00
20696;BME280;10507;52.754;13.040;2023-01-25T04:53:30;102488.66;;;1.20;100.00
20696;BME280;10507;52.754;13.040;2023-01-25T04:55:58;102440.25;;;1.09;100.00
20696;BME280;10507;52.754;13.040;2023-01-25T04:58:27;102455.22;;;1.13;100.00
20696;BME280;10507;52.754;13.040;2023-01-25T05:00:59;102508.00;;;1.22;100.00
20696;BME280;10507;52.754;13.040;2023-01-25T05:03:27;102441.16;;;1.11;100.00
20696;BME280;10507;52.754;13.040;2023-01-25T05:05:55;102435.09;;;1.15;100.00
20696;BME280;10507;52.754;13.040;2023-01-25T05:08:24;102421.94;;;1.15;100.00
20696;BME280;10507;52.754;13.040;2023-01-25T05:10:52;102422.78;;;1.14;100.00
20696;BME280;10507;52.754;13.040;2023-01-25T05:13:21;102437.75;;;1.17;100.00
20696;BME280;10507;52.754;13.040;2023-01-25T05:15:50;102460.59;;;1.19;100.00
20696;BME280;10507;52.754;13.040;2023-01-25T05:18:20;102464.13;;;1.20;100.00
20696;BME280;10507;52.754;13.040;2023-01-25T05:20:53;102458.94;;;1.24;100.00
20696;BME280;10507;52.754;13.040;2023-01-25T05:23:21;102411.53;;;1.21;100.00
20696;BME280;10507;52.754;13.040;2023-01-25T05:25:49;102415.09;;;1.23;100.00
20696;BME280;10507;52.754;13.040;2023-01-25T05:28:34;102418.59;;;1.24;100.00
20696;BME280;10507;52.754;13.040;2023-01-25T05:31:06;102418.59;;;1.24;100.00
20696;BME280;10507;52.754;13.040;2023-01-25T05:33:34;102384.28;;;1.18;100.00
20696;BME280;10507;52.754;13.040;2023-01-25T05:36:02;102411.53;;;1.21;100.00
20696;BME280;10507;52.754;13.040;2023-01-25T05:38:30;102389.53;;;1.18;100.00
20696;BME280;10507;52.754;13.040;2023-01-25T05:40:58;102424.78;;;1.28;100.00
20696;BME280;10507;52.754;13.040;2023-01-25T05:43:26;102378.25;;;1.23;100.00
20696;BME280;10507;52.754;13.040;2023-01-25T05:45:53;102395.00;;;1.29;100.00
20696;BME280;10507;52.754;13.040;2023-01-25T05:48:23;102406.50;;;1.35;100.00
20696;BME280;10507;52.754;13.040;2023-01-25T05:50:51;102423.28;;;1.42;100.00
20696;BME280;10507;52.754;13.040;2023-01-25T05:53:23;102407.41;;;1.39;100.00
20696;BME280;10507;52.754;13.040;2023-01-25T05:55:52;102377.53;;;1.34;100.00
20696;BME280;10507;52.754;13.040;2023-01-25T05:58:20;102383.63;;;1.31;100.00
20696;BME280;10507;52.754;13.040;2023-01-25T06:00:48;102414.34;;;1.34;100.00
20696;BME280;10507;52.754;13.040;2023-01-25T06:03:15;102420.56;;;1.39;100.00
20696;BME280;10507;52.754;13.040;2023-01-25T06:05:51;102443.34;;;1.35;100.00
20696;BME280;10507;52.754;13.040;2023-01-25T06:08:21;102473.19;;;1.39;100.00
20696;BME280;10507;52.754;13.040;2023-01-25T06:10:49;102464.44;;;1.37;100.00
20696;BME280;10507;52.754;13.040;2023-01-25T06:13:17;102446.84;;;1.36;100.00
20696;BME280;10507;52.754;13.040;2023-01-25T06:15:51;102472.31;;;1.38;100.00
20696;BME280;10507;52.754;13.040;2023-01-25T06:18:19;102484.69;;;1.42;100.00
20696;BME280;10507;52.754;13.040;2023-01-25T06:20:49;102489.06;;;1.42;100.00
20696;BME280;10507;52.754;13.040;2023-01-25T06:23:17;102518.09;;;1.47;100.00
20696;BME280;10507;52.754;13.040;2023-01-25T06:25:45;102486.50;;;1.47;100.00
20696;BME280;10507;52.754;13.040;2023-01-25T06:28:13;102456.63;;;1.43;100.00
20696;BME280;10507;52.754;13.040;2023-01-25T06:30:41;102425.84;;;1.39;100.00
20696;BME280;10507;52.754;13.040;2023-01-25T06:33:09;102440.78;;;1.40;100.00
20696;BME280;10507;52.754;13.040;2023-01-25T06:35:37;102469.78;;;1.41;100.00
20696;BME280;10507;52.754;13.040;2023-01-25T06:38:07;102505.84;;;1.50;100.00
20696;BME280;10507;52.754;13.040;2023-01-25T06:40:35;102469.78;;;1.43;100.00
20696;BME280;10507;52.754;13.040;2023-01-25T06:43:06;102477.66;;;1.43;100.00
20696;BME280;10507;52.754;13.040;2023-01-25T06:45:34;102505.84;;;1.50;100.00
20696;BME280;10507;52.754;13.040;2023-01-25T06:48:02;102486.63;;;1.54;100.00
20696;BME280;10507;52.754;13.040;2023-01-25T06:50:31;102457.69;;;1.53;100.00
20696;BME280;10507;52.754;13.040;2023-01-25T06:52:58;102472.59;;;1.54;100.00
20696;BME280;10507;52.754;13.040;2023-01-25T06:55:28;102465.66;;;1.57;100.00
20696;BME280;10507;52.754;13.040;2023-01-25T06:57:59;102448.03;;;1.53;100.00
20696;BME280;10507;52.754;13.040;2023-01-25T07:00:27;102462.03;;;1.51;100.00
20696;BME280;10507;52.754;13.040;2023-01-25T07:02:55;102454.13;;;1.52;100.00
20696;BME280;10507;52.754;13.040;2023-01-25T07:05:23;102424.25;;;1.50;100.00
20696;BME280;10507;52.754;13.040;2023-01-25T07:07:51;102449.69;;;1.48;100.00
20696;BME280;10507;52.754;13.040;2023-01-25T07:10:19;102441.81;;;1.48;100.00
20696;BME280;10507;52.754;13.040;2023-01-25T07:12:48;102421.63;;;1.50;100.00
20696;BME280;10507;52.754;13.040;2023-01-25T07:15:16;102432.19;;;1.52;100.00
20696;BME280;10507;52.754;13.040;2023-01-25T07:17:44;102441.88;;;1.54;100.00
20696;BME280;10507;52.754;13.040;2023-01-25T07:20:12;102413.81;;;1.53;100.00
20696;BME280;10507;52.754;13.040;2023-01-25T07:22:42;102446.34;;;1.58;100.00
20696;BME280;10507;52.754;13.040;2023-01-25T07:25:10;102442.09;;;1.66;100.00
20696;BME280;10507;52.754;13.040;2023-01-25T07:27:38;102403.50;;;1.69;100.00
20696;BME280;10507;52.754;13.040;2023-01-25T07:30:09;102386.78;;;1.65;100.00
20696;BME280;10507;52.754;13.040;2023-01-25T07:32:37;102428.16;;;1.74;100.00
20696;BME280;10507;52.754;13.040;2023-01-25T07:35:05;102399.13;;;1.69;100.00
20696;BME280;10507;52.754;13.040;2023-01-25T07:37:34;102408.81;;;1.72;100.00
20696;BME280;10507;52.754;13.040;2023-01-25T07:40:02;102420.28;;;1.75;100.00
20696;BME280;10507;52.754;13.040;2023-01-25T07:42:30;102391.25;;;1.71;100.00
20696;BME280;10507;52.754;13.040;2023-01-25T07:44:58;102392.16;;;1.74;100.00
20696;BME280;10507;52.754;13.040;2023-01-25T07:47:28;102371.13;;;1.76;100.00
20696;BME280;10507;52.754;13.040;2023-01-25T07:49:55;102408.94;;;1.81;100.00
20696;BME280;10507;52.754;13.040;2023-01-25T07:52:28;102372.00;;;1.76;100.00
20696;BME280;10507;52.754;13.040;2023-01-25T07:54:56;102374.66;;;1.76;100.00
20696;BME280;10507;52.754;13.040;2023-01-25T07:57:27;102419.47;;;1.81;100.00
20696;BME280;10507;52.754;13.040;2023-01-25T07:59:55;102376.47;;;1.80;100.00
20696;BME280;10507;52.754;13.040;2023-01-25T08:02:23;102370.31;;;1.80;100.00
20696;BME280;10507;52.754;13.040;2023-01-25T08:04:52;102398.47;;;1.84;100.00
20696;BME280;10507;52.754;13.040;2023-01-25T08:07:20;102369.41;;;1.79;100.00
20696;BME280;10507;52.754;13.040;2023-01-25T08:09:49;102434.53;;;1.90;100.00
20696;BME280;10507;52.754;13.040;2023-01-25T08:12:17;102398.53;;;1.90;100.00
20696;BME280;10507;52.754;13.040;2023-01-25T08:14:47;102359.72;;;1.77;100.00
20696;BME280;10507;52.754;13.040;2023-01-25T08:17:16;102414.28;;;1.84;100.00
20696;BME280;10507;52.754;13.040;2023-01-25T08:19:44;102398.47;;;1.85;100.00
20696;BME280;10507;52.754;13.040;2023-01-25T08:22:13;102444.28;;;1.95;100.00
20696;BME280;10507;52.754;13.040;2023-01-25T08:24:41;102367.75;;;1.86;100.00
20696;BME280;10507;52.754;13.040;2023-01-25T08:27:09;102376.56;;;1.88;100.00
20696;BME280;10507;52.754;13.040;2023-01-25T08:29:37;102312.34;;;1.77;100.00
20696;BME280;10507;52.754;13.040;2023-01-25T08:32:05;102357.13;;;1.78;100.00
20696;BME280;10507;52.754;13.040;2023-01-25T08:34:33;102314.00;;;1.69;100.00
20696;BME280;10507;52.754;13.040;2023-01-25T08:37:01;102373.81;;;1.77;100.00
20696;BME280;10507;52.754;13.040;2023-01-25T08:39:31;102381.56;;;1.70;100.00
20696;BME280;10507;52.754;13.040;2023-01-25T08:41:59;102393.00;;;1.72;100.00
20696;BME280;10507;52.754;13.040;2023-01-25T08:44:27;102342.91;;;1.64;100.00
20696;BME280;10507;52.754;13.040;2023-01-25T08:46:55;102360.41;;;1.62;100.00
20696;BME280;10507;52.754;13.040;2023-01-25T08:49:23;102382.44;;;1.69;100.00
20696;BME280;10507;52.754;13.040;2023-01-25T08:51:52;102395.75;;;1.78;100.00
20696;BME280;10507;52.754;13.040;2023-01-25T08:54:20;102358.69;;;1.65;100.00
20696;BME280;10507;52.754;13.040;2023-01-25T08:56:51;102362.13;;;1.61;100.00
20696;BME280;10507;52.754;13.040;2023-01-25T08:59:19;102416.69;;;1.70;100.00
20696;BME280;10507;52.754;13.040;2023-01-25T09:01:47;102440.44;;;1.75;100.00
20696;BME280;10507;52.754;13.040;2023-01-25T09:04:15;102424.66;;;1.75;100.00
20696;BME280;10507;52.754;13.040;2023-01-25T09:06:43;102404.44;;;1.71;100.00
20696;BME280;10507;52.754;13.040;2023-01-25T09:09:11;102465.13;;;1.80;100.00
20696;BME280;10507;52.754;13.040;2023-01-25T09:11:39;102451.16;;;1.84;100.00
20696;BME280;10507;52.754;13.040;2023-01-25T09:14:08;102414.16;;;1.76;100.00
20696;BME280;10507;52.754;13.040;2023-01-25T09:16:36;102457.28;;;1.84;100.00
20696;BME280;10507;52.754;13.040;2023-01-25T09:19:04;102412.47;;;1.80;100.00
20696;BME280;10507;52.754;13.040;2023-01-25T09:21:33;102412.34;;;1.74;100.00
20696;BME280;10507;52.754;13.040;2023-01-25T09:24:03;102448.44;;;1.81;100.00
20696;BME280;10507;52.754;13.040;2023-01-25T09:26:35;102450.31;;;1.86;100.00
20696;BME280;10507;52.754;13.040;2023-01-25T09:29:03;102433.53;;;1.81;100.00
20696;BME280;10507;52.754;13.040;2023-01-25T09:31:36;102377.28;;;1.76;100.00
20696;BME280;10507;52.754;13.040;2023-01-25T09:34:06;102398.38;;;1.78;100.00
20696;BME280;10507;52.754;13.040;2023-01-25T09:36:38;102431.78;;;1.80;100.00
20696;BME280;10507;52.754;13.040;2023-01-25T09:39:07;102446.81;;;1.89;100.00
20696;BME280;10507;52.754;13.040;2023-01-25T09:42:10;102431.03;;;1.89;100.00
20696;BME280;10507;52.754;13.040;2023-01-25T09:45:06;102382.66;;;1.82;100.00
20696;BME280;10507;52.754;13.040;2023-01-25T09:47:41;102395.75;;;1.79;100.00
20696;BME280;10507;52.754;13.040;2023-01-25T09:50:34;102437.19;;;1.91;100.00
20696;BME280;10507;52.754;13.040;2023-01-25T09:56:09;102396.69;;;1.83;100.00
20696;BME280;10507;52.754;13.040;2023-01-25T09:58:42;102406.34;;;1.82;100.00
20696;BME280;10507;52.754;13.040;2023-01-25T10:01:18;102388.75;;;1.80;100.00
20696;BME280;10507;52.754;13.040;2023-01-25T10:04:10;102430.91;;;1.83;100.00
20696;BME280;10507;52.754;13.040;2023-01-25T10:06:42;102390.44;;;1.76;100.00
20696;BME280;10507;52.754;13.040;2023-01-25T10:09:32;102417.75;;;1.83;100.00
20696;BME280;10507;52.754;13.040;2023-01-25T10:12:13;102385.19;;;1.76;100.00
20696;BME280;10507;52.754;13.040;2023-01-25T10:14:41;102354.44;;;1.74;100.00
20696;BME280;10507;52.754;13.040;2023-01-25T10:17:13;102379.94;;;1.78;100.00
20696;BME280;10507;52.754;13.040;2023-01-25T10:20:02;102362.28;;;1.72;100.00
20696;BME280;10507;52.754;13.040;2023-01-25T10:22:39;102362.38;;;1.75;100.00
20696;BME280;10507;52.754;13.040;2023-01-25T10:25:20;102402.63;;;1.70;100.00
20696;BME280;10507;52.754;13.040;2023-01-25T10:30:49;102394.72;;;1.66;100.00
20696;BME280;10507;52.754;13.040;2023-01-25T10:33:21;102392.88;;;1.62;100.00
20696;BME280;10507;52.754;13.040;2023-01-25T10:35:51;102407.09;;;1.74;100.00
20696;BME280;10507;52.754;13.040;2023-01-25T10:38:23;102345.47;;;1.59;100.00
20696;BME280;10507;52.754;13.040;2023-01-25T10:40:56;102354.09;;;1.52;100.00
20696;BME280;10507;52.754;13.040;2023-01-25T10:43:24;102386.75;;;1.62;100.00
20696;BME280;10507;52.754;13.040;2023-01-25T10:45:52;102346.22;;;1.51;100.00
20696;BME280;10507;52.754;13.040;2023-01-25T10:48:22;102410.28;;;1.54;100.00
20696;BME280;10507;52.754;13.040;2023-01-25T10:50:54;102401.59;;;1.58;100.00
20696;BME280;10507;52.754;13.040;2023-01-25T10:53:29;102441.28;;;1.71;100.00
20696;BME280;10507;52.754;13.040;2023-01-25T10:56:01;102416.72;;;1.72;100.00
20696;BME280;10507;52.754;13.040;2023-01-25T10:58:32;102380.53;;;1.58;100.00
20696;BME280;10507;52.754;13.040;2023-01-25T11:01:00;102398.03;;;1.55;100.00
20696;BME280;10507;52.754;13.040;2023-01-25T11:03:34;102378.63;;;1.48;100.00
20696;BME280;10507;52.754;13.040;2023-01-25T11:06:05;102380.28;;;1.41;100.00
20696;BME280;10507;52.754;13.040;2023-01-25T11:08:35;102429.50;;;1.47;100.00
20696;BME280;10507;52.754;13.040;2023-01-25T11:11:24;102456.84;;;1.57;100.00
20696;BME280;10507;52.754;13.040;2023-01-25T11:13:53;102449.69;;;1.50;100.00
20696;BME280;10507;52.754;13.040;2023-01-25T11:16:32;102444.56;;;1.56;100.00
20696;BME280;10507;52.754;13.040;2023-01-25T11:19:02;102418.09;;;1.47;100.00
20696;BME280;10507;52.754;13.040;2023-01-25T11:21:32;102427.59;;;1.37;100.00
20696;BME280;10507;52.754;13.040;2023-01-25T11:24:16;102490.03;;;1.47;100.00
20696;BME280;10507;52.754;13.040;2023-01-25T11:26:45;102494.53;;;1.54;100.00
20696;BME280;10507;52.754;13.040;2023-01-25T11:29:15;102459.31;;;1.46;100.00
20696;BME280;10507;52.754;13.040;2023-01-25T11:31:45;102486.63;;;1.53;100.00
20696;BME280;10507;52.754;13.040;2023-01-25T11:34:15;102428.66;;;1.48;100.00
20696;BME280;10507;52.754;13.040;2023-01-25T11:36:54;102424.09;;;1.38;100.00
20696;BME280;10507;52.754;13.040;2023-01-25T11:39:34;102476.03;;;1.50;100.00
20696;BME280;10507;52.754;13.040;2023-01-25T11:42:16;102427.75;;;1.48;100.00
20696;BME280;10507;52.754;13.040;2023-01-25T11:45:35;102450.59;;;1.50;100.00
20696;BME280;10507;52.754;13.040;2023-01-25T11:51:12;102421.69;;;1.53;100.00
20696;BME280;10507;52.754;13.040;2023-01-25T11:53:54;102396.09;;;1.41;100.00
20696;BME280;10507;52.754;13.040;2023-01-25T11:56:35;102436.59;;;1.51;100.00
20696;BME280;10507;52.754;13.040;2023-01-25T11:59:25;102387.28;;;1.41;100.00
20696;BME280;10507;52.754;13.040;2023-01-25T12:02:14;102389.91;;;1.41;100.00
20696;BME280;10507;52.754;13.040;2023-01-25T12:04:55;102396.88;;;1.37;100.00
20696;BME280;10507;52.754;13.040;2023-01-25T12:07:44;102417.22;;;1.46;100.00
20696;BME280;10507;52.754;13.040;2023-01-25T12:10:22;102394.38;;;1.45;100.00
20696;BME280;10507;52.754;13.040;2023-01-25T12:12:55;102373.25;;;1.40;100.00
20696;BME280;10507;52.754;13.040;2023-01-25T12:15:39;102393.47;;;1.44;100.00
20696;BME280;10507;52.754;13.040;2023-01-25T12:18:27;102416.38;;;1.49;100.00
20696;BME280;10507;52.754;13.040;2023-01-25T12:21:05;102422.66;;;1.58;100.00
20696;BME280;10507;52.754;13.040;2023-01-25T12:23:53;102379.56;;;1.52;100.00
20696;BME280;10507;52.754;13.040;2023-01-25T12:26:28;102334.72;;;1.44;100.00
20696;BME280;10507;52.754;13.040;2023-01-25T12:29:02;102383.91;;;1.48;100.00
20696;BME280;10507;52.754;13.040;2023-01-25T12:31:40;102390.09;;;1.52;100.00
20696;BME280;10507;52.754;13.040;2023-01-25T12:34:15;102405.03;;;1.54;100.00
20696;BME280;10507;52.754;13.040;2023-01-25T12:36:47;102444.72;;;1.68;100.00
20696;BME280;10507;52.754;13.040;2023-01-25T12:39:19;102368.25;;;1.57;100.00
20696;BME280;10507;52.754;13.040;2023-01-25T12:41:54;102354.06;;;1.49;100.00
20696;BME280;10507;52.754;13.040;2023-01-25T12:44:29;102395.44;;;1.58;100.00
20696;BME280;10507;52.754;13.040;2023-01-25T12:47:03;102339.97;;;1.44;100.00
20696;BME280;10507;52.754;13.040;2023-01-25T12:49:35;102370.81;;;1.53;100.00
20696;BME280;10507;52.754;13.040;2023-01-25T12:52:06;102339.16;;;1.48;100.00
20696;BME280;10507;52.754;13.040;2023-01-25T12:54:42;102328.53;;;1.43;100.00
20696;BME280;10507;52.754;13.040;2023-01-25T12:57:20;102300.34;;;1.33;100.00
20696;BME280;10507;52.754;13.040;2023-01-25T13:00:02;102355.66;;;1.38;100.00
20696;BME280;10507;52.754;13.040;2023-01-25T13:02:58;102369.84;;;1.46;100.00
20696;BME280;10507;52.754;13.040;2023-01-25T13:05:32;102373.16;;;1.36;100.00
20696;BME280;10507;52.754;13.040;2023-01-25T13:08:13;102393.44;;;1.43;100.00
20696;BME280;10507;52.754;13.040;2023-01-25T13:11:08;102353.06;;;1.41;100.00
20696;BME280;10507;52.754;13.040;2023-01-25T13:13:38;102335.47;;;1.37;100.00
20696;BME280;10507;52.754;13.040;2023-01-25T13:16:35;102296.69;;;1.23;100.00
20696;BME280;10507;52.754;13.040;2023-01-25T13:19:17;102356.53;;;1.37;100.00
20696;BME280;10507;52.754;13.040;2023-01-25T13:21:47;102353.91;;;1.38;100.00